Terminal Aerodrome Forecast
Issued by NWS Billings, MT

Home | Current Version | Previous Version | Text Only | Print | Product List | Glossary On
Versions: 1 2 3 4 5 6 7 8 9 10 11 12
000
FTUS45 KBYZ 222337
TAFMLS
TAF
KMLS 222337Z 2300/2324 09008KT P6SM SKC
     FM230400 04010KT P6SM FEW060 BKN120
     FM231000 02012KT P6SM -SHRA SCT025 BKN050 OVC100
     FM231700 02015KT 5SM -RA BR SCT015 OVC040=

USA.gov is the U.S. government's official web portal to all federal, state and local government web resources and services.